createdAt,value
2022-09-18T00:01:42.712Z,12.79
2022-09-18T00:04:14.883Z,12.75
2022-09-18T00:06:46.012Z,12.69
2022-09-18T00:09:16.700Z,12.71
2022-09-18T00:11:48.130Z,12.68
2022-09-18T00:14:20.872Z,12.70
2022-09-18T00:16:51.715Z,12.67
2022-09-18T00:19:21.014Z,12.66
2022-09-18T00:21:52.175Z,12.65
2022-09-18T00:24:23.325Z,12.65
2022-09-18T00:26:51.994Z,12.62
2022-09-18T00:29:20.191Z,12.62
2022-09-18T00:31:49.832Z,12.60
2022-09-18T00:34:18.445Z,12.60
2022-09-18T00:36:46.705Z,12.58
2022-09-18T00:39:15.365Z,12.58
2022-09-18T00:41:45.196Z,12.57
2022-09-18T00:44:40.182Z,12.54
2022-09-18T00:47:27.009Z,12.53
2022-09-18T00:50:03.950Z,12.50
2022-09-18T00:52:43.738Z,12.54
2022-09-18T00:55:12.919Z,12.49
2022-09-18T00:57:47.686Z,12.49
2022-09-18T01:00:16.352Z,12.48
2022-09-18T01:02:48.615Z,12.50
2022-09-18T01:05:22.346Z,12.46
2022-09-18T01:08:04.339Z,12.50
2022-09-18T01:10:50.002Z,12.52
2022-09-18T01:13:29.112Z,12.52
2022-09-18T01:16:04.920Z,12.52
2022-09-18T01:18:44.757Z,12.43
2022-09-18T01:21:15.090Z,12.48
2022-09-18T01:24:22.506Z,12.50
2022-09-18T01:26:57.110Z,12.48
2022-09-18T01:29:42.024Z,12.48
2022-09-18T01:32:21.561Z,12.46
2022-09-18T01:34:59.804Z,12.41
2022-09-18T01:37:35.129Z,12.39
2022-09-18T01:40:12.288Z,12.37
2022-09-18T01:42:42.482Z,12.38
2022-09-18T01:45:17.521Z,12.39
2022-09-18T01:47:51.702Z,12.36
2022-09-18T01:50:20.918Z,12.35
2022-09-18T01:52:59.171Z,12.37
2022-09-18T01:55:31.432Z,12.36
2022-09-18T01:58:03.738Z,12.27
2022-09-18T02:00:33.807Z,12.30
2022-09-18T02:03:07.291Z,12.34
2022-09-18T02:05:41.992Z,12.33
2022-09-18T02:08:17.238Z,12.36
2022-09-18T02:10:51.848Z,12.36
2022-09-18T02:13:26.736Z,12.38
2022-09-18T02:16:02.073Z,12.42
2022-09-18T02:18:34.923Z,12.45
2022-09-18T02:21:03.462Z,12.46
2022-09-18T02:23:33.971Z,12.47
2022-09-18T02:26:07.157Z,12.48
2022-09-18T02:28:38.332Z,12.49
2022-09-18T02:31:08.142Z,12.50
2022-09-18T02:33:38.710Z,12.49
2022-09-18T02:36:36.090Z,12.46
2022-09-18T02:39:27.188Z,12.47
2022-09-18T02:42:11.847Z,12.46
2022-09-18T02:44:50.575Z,12.45
2022-09-18T02:47:37.094Z,12.45
2022-09-18T02:50:15.925Z,12.44
2022-09-18T02:52:52.183Z,12.42
2022-09-18T02:55:27.067Z,12.42
2022-09-18T02:58:01.627Z,12.43
2022-09-18T03:00:32.320Z,12.43
2022-09-18T03:03:02.296Z,12.45
2022-09-18T03:05:30.611Z,12.45
2022-09-18T03:07:58.866Z,12.45
2022-09-18T03:10:27.392Z,12.43
2022-09-18T03:12:55.577Z,12.44
2022-09-18T03:15:23.875Z,12.43
2022-09-18T03:17:52.151Z,12.43
2022-09-18T03:20:21.746Z,12.44
2022-09-18T03:22:50.154Z,12.44
2022-09-18T03:25:18.411Z,12.43
2022-09-18T03:27:46.652Z,12.42
2022-09-18T03:30:15.138Z,12.42
2022-09-18T03:32:43.341Z,12.42
2022-09-18T03:35:11.671Z,12.41
2022-09-18T03:37:41.276Z,12.42
2022-09-18T03:40:10.665Z,12.41
2022-09-18T03:42:39.087Z,12.43
2022-09-18T03:45:08.582Z,12.44
2022-09-18T03:47:36.904Z,12.42
2022-09-18T03:50:06.007Z,12.42
2022-09-18T03:52:34.552Z,12.41
2022-09-18T03:55:04.270Z,12.40
2022-09-18T03:57:32.503Z,12.28
2022-09-18T04:00:00.698Z,12.31
2022-09-18T04:02:28.992Z,12.31
2022-09-18T04:04:57.305Z,12.32
2022-09-18T04:07:25.582Z,12.32
2022-09-18T04:09:53.778Z,12.34
2022-09-18T04:12:24.141Z,12.35
2022-09-18T04:14:52.386Z,12.35
2022-09-18T04:17:20.595Z,12.37
2022-09-18T04:19:53.262Z,12.36
2022-09-18T04:22:21.947Z,12.37
2022-09-18T04:24:51.386Z,12.37
2022-09-18T04:27:19.711Z,12.37
2022-09-18T04:29:49.343Z,12.37
2022-09-18T04:32:17.610Z,12.34
2022-09-18T04:34:45.857Z,12.35
2022-09-18T04:37:14.071Z,12.35
2022-09-18T04:39:42.314Z,12.30
2022-09-18T04:42:10.514Z,12.31
2022-09-18T04:44:38.759Z,12.32
2022-09-18T04:47:08.493Z,12.33
2022-09-18T04:49:36.777Z,12.32
2022-09-18T04:52:05.155Z,12.30
2022-09-18T04:54:33.413Z,12.32
2022-09-18T04:57:01.701Z,12.33
2022-09-18T04:59:29.901Z,12.33
2022-09-18T05:01:58.306Z,12.31
2022-09-18T05:04:28.039Z,12.31
2022-09-18T05:06:56.509Z,12.30
2022-09-18T05:09:24.836Z,12.29
2022-09-18T05:11:54.498Z,12.25
2022-09-18T05:14:22.858Z,12.26
2022-09-18T05:16:51.067Z,12.25
2022-09-18T05:19:19.255Z,12.27
2022-09-18T05:21:51.307Z,12.25
2022-09-18T05:24:19.797Z,12.25
2022-09-18T05:26:48.579Z,12.25
2022-09-18T05:29:16.792Z,12.25
2022-09-18T05:31:45.018Z,12.28
2022-09-18T05:34:13.344Z,12.28
2022-09-18T05:36:41.571Z,12.30
2022-09-18T05:39:15.460Z,12.29
2022-09-18T05:41:45.688Z,12.26
2022-09-18T05:44:14.113Z,12.29
2022-09-18T05:46:42.479Z,12.29
2022-09-18T05:49:10.978Z,12.27
2022-09-18T05:51:39.545Z,12.32
2022-09-18T05:54:07.806Z,12.32
2022-09-18T05:56:37.434Z,12.33
2022-09-18T05:59:05.682Z,12.33
2022-09-18T06:01:34.162Z,12.36
2022-09-18T06:04:03.799Z,12.37
2022-09-18T06:06:32.285Z,12.38
2022-09-18T06:09:00.634Z,12.40
2022-09-18T06:11:29.307Z,12.41
2022-09-18T06:13:59.269Z,12.41
2022-09-18T06:16:28.561Z,12.43
2022-09-18T06:18:57.068Z,12.39
2022-09-18T06:21:25.428Z,12.46
2022-09-18T06:23:53.687Z,12.48
2022-09-18T06:26:22.199Z,12.52
2022-09-18T06:28:50.736Z,12.53
2022-09-18T06:31:20.394Z,12.51
2022-09-18T06:33:49.560Z,12.51
2022-09-18T06:36:17.803Z,12.54
2022-09-18T06:38:46.268Z,12.54
2022-09-18T06:41:14.511Z,12.57
2022-09-18T06:43:42.750Z,12.60
2022-09-18T06:46:12.203Z,12.62
2022-09-18T06:48:41.859Z,12.63
2022-09-18T06:51:10.694Z,12.64
2022-09-18T06:53:38.989Z,12.70
2022-09-18T06:56:07.272Z,12.76
2022-09-18T06:58:35.510Z,12.80
2022-09-18T07:01:03.985Z,12.81
2022-09-18T07:03:32.273Z,12.85
2022-09-18T07:06:01.850Z,12.92
2022-09-18T07:08:30.138Z,12.94
2022-09-18T07:11:02.428Z,12.97
2022-09-18T07:13:32.954Z,12.98
2022-09-18T07:16:01.333Z,13.03
2022-09-18T07:18:29.793Z,13.04
2022-09-18T07:21:01.975Z,13.08
2022-09-18T07:23:33.020Z,13.07
2022-09-18T07:26:01.707Z,13.12
2022-09-18T07:28:30.218Z,13.15
2022-09-18T07:31:04.009Z,13.14
2022-09-18T07:33:32.442Z,13.20
2022-09-18T07:36:03.467Z,13.19
2022-09-18T07:38:31.878Z,13.22
2022-09-18T07:41:03.336Z,13.25
2022-09-18T07:43:32.491Z,13.29
2022-09-18T07:46:00.779Z,13.34
2022-09-18T07:48:29.810Z,13.36
2022-09-18T07:50:59.340Z,13.40
2022-09-18T07:53:29.510Z,13.43
2022-09-18T07:55:57.890Z,13.45
2022-09-18T07:58:26.919Z,13.48
2022-09-18T08:00:55.194Z,13.46
2022-09-18T08:03:25.323Z,13.47
2022-09-18T08:05:54.926Z,13.50
2022-09-18T08:08:23.737Z,13.50
2022-09-18T08:10:53.896Z,13.48
2022-09-18T08:13:22.867Z,13.51
2022-09-18T08:15:51.259Z,13.53
2022-09-18T08:18:22.297Z,13.56
2022-09-18T08:20:50.587Z,13.57
2022-09-18T08:23:18.859Z,13.59
2022-09-18T08:25:47.657Z,13.57
2022-09-18T08:28:17.536Z,13.58
2022-09-18T08:30:45.796Z,13.61
2022-09-18T08:33:15.265Z,13.65
2022-09-18T08:35:43.650Z,13.65
2022-09-18T08:38:12.102Z,13.70
2022-09-18T08:41:05.532Z,13.71
2022-09-18T08:43:53.981Z,13.73
2022-09-18T08:46:29.467Z,13.75
2022-09-18T08:49:05.708Z,13.74
2022-09-18T08:51:39.227Z,13.73
2022-09-18T08:54:22.067Z,13.70
2022-09-18T08:56:51.468Z,13.73
2022-09-18T08:59:32.849Z,13.73
2022-09-18T09:02:35.515Z,13.73
2022-09-18T09:05:10.651Z,13.75
2022-09-18T09:08:06.798Z,13.79
2022-09-18T09:10:44.059Z,13.81
2022-09-18T09:13:58.321Z,13.78
2022-09-18T09:16:38.736Z,13.78
2022-09-18T09:19:28.460Z,13.80
2022-09-18T09:22:08.622Z,13.76
2022-09-18T09:24:42.748Z,13.78
2022-09-18T09:27:21.070Z,13.77
2022-09-18T09:29:50.970Z,13.83
2022-09-18T09:32:29.597Z,13.84
2022-09-18T09:35:09.523Z,13.77
2022-09-18T09:37:42.462Z,13.78
2022-09-18T09:40:16.802Z,13.84
2022-09-18T09:42:52.319Z,13.84
2022-09-18T09:45:29.253Z,13.85
2022-09-18T09:48:08.396Z,13.81
2022-09-18T09:50:51.409Z,13.75
2022-09-18T09:53:22.700Z,13.81
2022-09-18T09:56:01.510Z,13.84
2022-09-18T09:58:42.362Z,13.87
2022-09-18T10:01:17.522Z,13.89
2022-09-18T10:04:00.989Z,13.90
2022-09-18T10:06:44.338Z,13.96
2022-09-18T10:09:21.278Z,13.99
2022-09-18T10:11:57.448Z,14.01
2022-09-18T10:14:29.526Z,14.02
2022-09-18T10:16:59.348Z,14.08
2022-09-18T10:19:36.332Z,14.08
2022-09-18T10:22:08.693Z,14.14
2022-09-18T10:24:48.169Z,14.19
2022-09-18T10:27:17.587Z,14.25
2022-09-18T10:29:45.995Z,14.27
2022-09-18T10:32:15.172Z,14.34
2022-09-18T10:34:48.672Z,14.38
2022-09-18T10:37:19.282Z,14.36
2022-09-18T10:39:53.294Z,14.41
2022-09-18T10:42:24.934Z,14.37
2022-09-18T10:44:59.209Z,14.36
2022-09-18T10:47:32.190Z,14.37
2022-09-18T10:50:16.780Z,14.35
2022-09-18T10:52:46.573Z,14.32
2022-09-18T10:55:18.684Z,14.32
2022-09-18T10:58:03.582Z,14.23
2022-09-18T11:00:52.637Z,14.23
2022-09-18T11:03:37.647Z,14.20
2022-09-18T11:06:15.976Z,14.22
2022-09-18T11:08:48.209Z,14.19
2022-09-18T11:11:25.765Z,14.22
2022-09-18T11:14:00.896Z,14.24
2022-09-18T11:16:32.058Z,14.26
2022-09-18T11:19:07.887Z,14.33
2022-09-18T11:21:46.406Z,14.40
2022-09-18T11:24:25.214Z,14.46
2022-09-18T11:26:55.585Z,14.56
2022-09-18T11:29:30.716Z,14.63
2022-09-18T11:32:05.741Z,14.67
2022-09-18T11:34:38.858Z,14.71
2022-09-18T11:37:13.022Z,14.75
2022-09-18T11:39:46.032Z,14.77
2022-09-18T11:42:15.763Z,14.78
2022-09-18T11:44:44.248Z,14.80
2022-09-18T11:47:37.960Z,14.80
2022-09-18T11:50:15.093Z,14.83
2022-09-18T11:52:46.729Z,14.84
2022-09-18T11:55:28.520Z,14.87
2022-09-18T11:58:01.237Z,14.91
2022-09-18T12:00:35.770Z,14.84
2022-09-18T12:03:19.917Z,14.85
2022-09-18T12:05:56.739Z,14.90
2022-09-18T12:08:38.628Z,14.93
2022-09-18T12:11:19.581Z,14.95
2022-09-18T12:13:59.883Z,14.99
2022-09-18T12:16:43.378Z,15.05
2022-09-18T12:19:19.335Z,15.10
2022-09-18T12:22:00.366Z,15.14
2022-09-18T12:24:30.204Z,15.14
2022-09-18T12:27:25.003Z,15.18
2022-09-18T12:30:10.303Z,15.17
2022-09-18T12:33:17.466Z,15.14
2022-09-18T12:36:22.310Z,15.16
2022-09-18T12:39:05.581Z,15.17
2022-09-18T12:41:49.560Z,15.20
2022-09-18T12:44:44.630Z,15.19
2022-09-18T12:47:32.855Z,15.17
2022-09-18T12:50:29.386Z,15.15
2022-09-18T12:53:10.332Z,15.17
2022-09-18T12:55:56.931Z,15.20
2022-09-18T12:58:58.209Z,15.15
2022-09-18T13:01:33.027Z,15.17
2022-09-18T13:04:13.113Z,15.21
2022-09-18T13:06:47.824Z,15.27
2022-09-18T13:09:25.764Z,15.30
2022-09-18T13:12:00.614Z,15.34
2022-09-18T13:14:38.921Z,15.29
2022-09-18T13:17:14.670Z,15.33
2022-09-18T13:19:49.308Z,15.33
2022-09-18T13:22:21.326Z,15.35
2022-09-18T13:24:55.126Z,15.33
2022-09-18T13:27:25.656Z,15.31
2022-09-18T13:30:00.087Z,15.34
2022-09-18T13:32:42.392Z,15.35
2022-09-18T13:35:25.228Z,15.34
2022-09-18T13:38:18.131Z,15.34
2022-09-18T13:40:49.820Z,15.36
2022-09-18T13:43:39.032Z,15.39
2022-09-18T13:46:11.047Z,15.46
2022-09-18T13:48:48.845Z,15.48
2022-09-18T13:51:22.320Z,15.49
2022-09-18T13:54:18.772Z,15.46
2022-09-18T13:57:30.459Z,15.41
2022-09-18T14:00:01.722Z,15.40
2022-09-18T14:02:35.678Z,15.46
2022-09-18T14:05:34.443Z,15.46
2022-09-18T14:08:11.644Z,15.47
2022-09-18T14:11:15.769Z,15.49
2022-09-18T14:13:54.013Z,15.51
2022-09-18T14:16:30.601Z,15.50
2022-09-18T14:19:05.043Z,15.53
2022-09-18T14:21:40.096Z,15.55
2022-09-18T14:25:00.029Z,15.55
2022-09-18T14:27:57.046Z,15.55
2022-09-18T14:30:29.142Z,15.55
2022-09-18T14:33:20.980Z,15.60
2022-09-18T14:35:58.444Z,15.65
2022-09-18T14:38:33.692Z,15.71
2022-09-18T14:41:18.918Z,15.69
2022-09-18T14:43:53.929Z,15.76
2022-09-18T14:46:25.451Z,15.77
2022-09-18T14:48:54.477Z,15.79
2022-09-18T14:51:26.475Z,15.83
2022-09-18T14:53:56.905Z,15.85
2022-09-18T14:56:30.388Z,15.89
2022-09-18T14:59:02.310Z,15.93
2022-09-18T15:01:33.726Z,15.88
2022-09-18T15:04:05.581Z,15.93
2022-09-18T15:06:39.196Z,15.92
2022-09-18T15:09:12.938Z,15.94
2022-09-18T15:12:01.473Z,15.95
2022-09-18T15:14:41.828Z,15.93
2022-09-18T15:17:20.491Z,15.92
2022-09-18T15:20:01.161Z,15.91
2022-09-18T15:22:31.962Z,15.95
2022-09-18T15:25:01.935Z,15.97
2022-09-18T15:27:31.567Z,15.98
2022-09-18T15:30:04.497Z,15.99
2022-09-18T15:32:38.869Z,15.98
2022-09-18T15:35:09.461Z,15.98
2022-09-18T15:37:52.411Z,15.97
2022-09-18T15:40:27.310Z,15.97
2022-09-18T15:42:59.679Z,15.98
2022-09-18T15:45:30.844Z,15.97
2022-09-18T15:48:01.899Z,15.97
2022-09-18T15:50:37.776Z,15.95
2022-09-18T15:53:29.535Z,15.93
2022-09-18T15:56:02.881Z,15.89
2022-09-18T15:58:47.310Z,15.87
2022-09-18T16:01:27.239Z,15.84
2022-09-18T16:04:20.193Z,15.78
2022-09-18T16:07:02.603Z,15.78
2022-09-18T16:09:41.401Z,15.74
2022-09-18T16:12:39.879Z,15.72
2022-09-18T16:15:22.159Z,15.71
2022-09-18T16:18:05.621Z,15.68
2022-09-18T16:20:40.104Z,15.67
2022-09-18T16:23:20.857Z,15.63
2022-09-18T16:26:09.146Z,15.61
2022-09-18T16:28:42.055Z,15.60
2022-09-18T16:31:12.080Z,15.57
2022-09-18T16:33:55.372Z,15.56
2022-09-18T16:36:29.636Z,15.54
2022-09-18T16:39:01.414Z,15.53
2022-09-18T16:41:32.939Z,15.53
2022-09-18T16:44:01.804Z,15.52
2022-09-18T16:46:34.575Z,15.49
2022-09-18T16:49:03.018Z,15.46
2022-09-18T16:51:31.798Z,15.40
2022-09-18T16:54:00.242Z,15.42
2022-09-18T16:56:34.043Z,15.39
2022-09-18T16:59:05.077Z,15.35
2022-09-18T17:01:54.284Z,15.33
2022-09-18T17:04:25.435Z,15.29
2022-09-18T17:06:53.991Z,15.25
2022-09-18T17:09:23.846Z,15.24
2022-09-18T17:11:54.407Z,15.21
2022-09-18T17:14:23.216Z,15.20
2022-09-18T17:16:51.923Z,15.14
2022-09-18T17:19:20.252Z,15.13
2022-09-18T17:21:48.937Z,15.08
2022-09-18T17:24:17.867Z,15.06
2022-09-18T17:26:46.193Z,15.05
2022-09-18T17:29:15.865Z,15.04
2022-09-18T17:31:44.748Z,15.03
2022-09-18T17:34:13.341Z,15.00
2022-09-18T17:36:41.614Z,14.93
2022-09-18T17:39:10.399Z,14.92
2022-09-18T17:41:39.259Z,14.90
2022-09-18T17:44:07.567Z,14.89
2022-09-18T17:46:37.286Z,14.86
2022-09-18T17:49:06.596Z,14.85
2022-09-18T17:51:34.928Z,14.81
2022-09-18T17:54:05.894Z,14.80
2022-09-18T17:56:35.370Z,14.77
2022-09-18T17:59:06.685Z,14.77
2022-09-18T18:01:40.614Z,14.76
2022-09-18T18:04:09.239Z,14.76
2022-09-18T18:06:38.136Z,14.75
2022-09-18T18:09:09.781Z,14.76
2022-09-18T18:11:38.889Z,14.74
2022-09-18T18:14:07.436Z,14.74
2022-09-18T18:16:36.336Z,14.73
2022-09-18T18:19:08.454Z,14.72
2022-09-18T18:21:36.715Z,14.71
2022-09-18T18:24:09.943Z,14.68
2022-09-18T18:26:39.351Z,14.67
2022-09-18T18:29:11.003Z,14.64
2022-09-18T18:31:39.780Z,14.65
2022-09-18T18:34:10.742Z,14.64
2022-09-18T18:36:41.618Z,14.64
2022-09-18T18:39:12.962Z,14.60
2022-09-18T18:41:44.713Z,14.60
2022-09-18T18:44:13.306Z,14.58
2022-09-18T18:46:41.969Z,14.52
2022-09-18T18:49:15.352Z,14.48
2022-09-18T18:51:47.534Z,14.48
2022-09-18T18:54:17.774Z,14.49
2022-09-18T18:56:47.018Z,14.44
2022-09-18T18:59:18.238Z,14.43
2022-09-18T19:01:47.359Z,14.45
2022-09-18T19:04:19.820Z,14.44
2022-09-18T19:06:49.457Z,14.46
2022-09-18T19:09:21.127Z,14.40
2022-09-18T19:11:50.798Z,14.36
2022-09-18T19:14:21.444Z,14.36
2022-09-18T19:16:50.563Z,14.37
2022-09-18T19:19:23.437Z,14.38
2022-09-18T19:21:52.776Z,14.36
2022-09-18T19:24:22.183Z,14.33
2022-09-18T19:26:50.617Z,14.34
2022-09-18T19:29:21.952Z,14.33
2022-09-18T19:31:51.232Z,14.28
2022-09-18T19:34:22.152Z,14.29
2022-09-18T19:36:51.853Z,14.28
2022-09-18T19:39:23.932Z,14.26
2022-09-18T19:41:56.486Z,14.25
2022-09-18T19:44:33.884Z,14.23
2022-09-18T19:47:05.994Z,14.21
2022-09-18T19:49:39.272Z,14.20
2022-09-18T19:52:17.997Z,14.17
2022-09-18T19:54:46.405Z,14.13
2022-09-18T19:57:14.934Z,14.11
2022-09-18T19:59:43.209Z,14.05
2022-09-18T20:02:14.613Z,14.04
2022-09-18T20:04:44.553Z,14.01
2022-09-18T20:07:13.179Z,13.96
2022-09-18T20:09:41.650Z,13.92
2022-09-18T20:12:10.784Z,13.90
2022-09-18T20:14:39.258Z,13.86
2022-09-18T20:17:08.274Z,13.84
2022-09-18T20:19:36.845Z,13.77
2022-09-18T20:22:06.787Z,13.77
2022-09-18T20:24:35.154Z,13.74
2022-09-18T20:27:03.466Z,13.68
2022-09-18T20:29:31.722Z,13.68
2022-09-18T20:31:59.940Z,13.63
2022-09-18T20:34:28.167Z,13.62
2022-09-18T20:36:56.515Z,13.60
2022-09-18T20:39:26.236Z,13.59
2022-09-18T20:41:57.272Z,13.60
2022-09-18T20:44:25.574Z,13.57
2022-09-18T20:46:56.745Z,13.56
2022-09-18T20:49:25.383Z,13.55
2022-09-18T20:51:54.457Z,13.55
2022-09-18T20:54:23.155Z,13.52
2022-09-18T20:56:52.889Z,13.53
2022-09-18T20:59:21.349Z,13.51
2022-09-18T21:01:50.286Z,13.50
2022-09-18T21:04:21.746Z,13.48
2022-09-18T21:06:56.188Z,13.50
2022-09-18T21:09:26.845Z,13.48
2022-09-18T21:11:57.311Z,13.48
2022-09-18T21:14:26.979Z,13.47
2022-09-18T21:16:55.938Z,13.46
2022-09-18T21:19:26.218Z,13.46
2022-09-18T21:21:54.705Z,13.47
2022-09-18T21:24:23.155Z,13.45
2022-09-18T21:26:51.572Z,13.45
2022-09-18T21:29:23.539Z,13.44
2022-09-18T21:31:54.143Z,13.44
2022-09-18T21:34:26.688Z,13.43
2022-09-18T21:36:57.617Z,13.41
2022-09-18T21:39:28.124Z,13.41
2022-09-18T21:41:56.552Z,13.41
2022-09-18T21:44:28.213Z,13.39
2022-09-18T21:46:58.880Z,13.38
2022-09-18T21:49:29.072Z,13.35
2022-09-18T21:51:59.284Z,13.35
2022-09-18T21:54:28.690Z,13.34
2022-09-18T21:56:56.995Z,13.32
2022-09-18T21:59:28.971Z,13.32
2022-09-18T22:01:57.787Z,13.33
2022-09-18T22:04:28.801Z,13.31
2022-09-18T22:07:00.290Z,13.30
2022-09-18T22:09:31.139Z,13.31
2022-09-18T22:12:01.213Z,13.30
2022-09-18T22:14:33.841Z,13.28
2022-09-18T22:17:04.427Z,13.26
2022-09-18T22:19:33.605Z,13.23
2022-09-18T22:22:02.840Z,13.23
2022-09-18T22:24:31.452Z,13.21
2022-09-18T22:27:02.541Z,13.18
2022-09-18T22:29:34.490Z,13.14
2022-09-18T22:32:03.600Z,13.12
2022-09-18T22:34:34.805Z,13.08
2022-09-18T22:37:03.837Z,13.08
2022-09-18T22:39:32.163Z,13.08
2022-09-18T22:42:00.866Z,13.10
2022-09-18T22:44:29.085Z,13.09
2022-09-18T22:46:58.708Z,13.11
2022-09-18T22:49:26.920Z,13.12
2022-09-18T22:51:55.296Z,13.13
2022-09-18T22:54:26.340Z,13.12
2022-09-18T22:56:56.194Z,13.11
2022-09-18T22:59:27.317Z,13.11
2022-09-18T23:02:00.445Z,13.11
2022-09-18T23:04:32.353Z,13.08
2022-09-18T23:07:01.339Z,13.09
2022-09-18T23:09:30.223Z,13.06
2022-09-18T23:12:00.311Z,13.08
2022-09-18T23:14:31.139Z,13.09
2022-09-18T23:17:01.831Z,13.05
2022-09-18T23:19:32.677Z,13.04
2022-09-18T23:22:01.696Z,12.99
2022-09-18T23:24:31.652Z,12.97
2022-09-18T23:27:00.374Z,12.98
2022-09-18T23:29:31.814Z,12.98
2022-09-18T23:32:01.530Z,12.97
2022-09-18T23:34:33.652Z,12.97
2022-09-18T23:37:02.666Z,12.92
2022-09-18T23:39:32.767Z,12.85
2022-09-18T23:42:02.616Z,12.82
2022-09-18T23:44:32.093Z,12.83
2022-09-18T23:47:02.251Z,12.81
2022-09-18T23:49:31.233Z,12.81
2022-09-18T23:52:01.476Z,12.80
2022-09-18T23:54:32.349Z,12.78
2022-09-18T23:57:01.006Z,12.76
2022-09-18T23:59:29.676Z,12.76
